createdAt,value
2022-10-06T00:01:03.642Z,2.30
2022-10-06T00:03:31.119Z,2.72
2022-10-06T00:06:01.142Z,2.50
2022-10-06T00:08:27.960Z,2.75
2022-10-06T00:13:21.596Z,3.03
2022-10-06T00:15:47.894Z,3.03
2022-10-06T00:18:14.201Z,2.50
2022-10-06T00:20:43.330Z,3.08
2022-10-06T00:23:09.932Z,3.60
2022-10-06T00:25:36.399Z,3.40
2022-10-06T00:28:02.804Z,2.97
2022-10-06T00:30:31.140Z,3.45
2022-10-06T00:33:01.323Z,2.88
2022-10-06T00:35:29.813Z,2.75
2022-10-06T00:37:56.072Z,2.72
2022-10-06T00:40:22.773Z,2.97
2022-10-06T00:42:53.436Z,2.92
2022-10-06T00:45:39.686Z,3.42
2022-10-06T00:48:10.542Z,2.83
2022-10-06T00:50:37.807Z,2.75
2022-10-06T00:53:04.942Z,2.72
2022-10-06T00:55:31.214Z,2.70
2022-10-06T00:57:58.302Z,2.63
2022-10-06T01:03:08.949Z,3.20
2022-10-06T01:05:41.689Z,3.45
2022-10-06T01:08:08.705Z,3.63
2022-10-06T01:13:01.510Z,3.22
2022-10-06T01:15:28.081Z,3.30
2022-10-06T01:17:55.167Z,3.05
2022-10-06T01:20:22.218Z,3.22
2022-10-06T01:25:15.656Z,3.35
2022-10-06T01:27:43.737Z,3.30
2022-10-06T01:30:13.584Z,3.63
2022-10-06T01:32:40.282Z,4.05
2022-10-06T01:35:07.289Z,3.72
2022-10-06T01:39:59.889Z,3.58
2022-10-06T01:42:26.162Z,2.97
2022-10-06T01:44:52.412Z,3.88
2022-10-06T01:47:18.641Z,3.53
2022-10-06T01:49:44.892Z,3.72
2022-10-06T01:52:11.138Z,3.75
2022-10-06T01:54:37.402Z,3.30
2022-10-06T01:57:04.992Z,3.47
2022-10-06T01:59:31.256Z,3.75
2022-10-06T02:01:57.495Z,3.65
2022-10-06T02:04:23.809Z,3.95
2022-10-06T02:06:51.344Z,4.18
2022-10-06T02:09:17.724Z,3.53
2022-10-06T02:11:43.946Z,3.97
2022-10-06T02:14:10.239Z,3.58
2022-10-06T02:16:36.452Z,3.38
2022-10-06T02:19:02.710Z,3.53
2022-10-06T02:21:28.922Z,3.65
2022-10-06T02:23:55.193Z,3.78
2022-10-06T02:26:21.439Z,3.53
2022-10-06T02:28:49.751Z,3.70
2022-10-06T02:31:16.640Z,3.88
2022-10-06T02:33:43.664Z,3.88
2022-10-06T02:38:36.032Z,4.22
2022-10-06T02:41:02.316Z,3.33
2022-10-06T02:43:31.314Z,3.83
2022-10-06T02:45:58.953Z,3.90
2022-10-06T02:48:26.020Z,3.55
2022-10-06T02:50:56.245Z,3.63
2022-10-06T02:53:23.853Z,4.15
2022-10-06T02:55:50.142Z,3.85
2022-10-06T02:58:16.423Z,3.50
2022-10-06T03:00:42.657Z,4.25
2022-10-06T03:03:08.912Z,3.97
2022-10-06T03:05:35.222Z,3.80
2022-10-06T03:08:01.429Z,3.72
2022-10-06T03:10:27.653Z,4.00
2022-10-06T03:12:53.861Z,3.85
2022-10-06T03:15:21.278Z,3.60
2022-10-06T03:17:50.557Z,3.90
2022-10-06T03:20:16.811Z,3.97
2022-10-06T03:22:43.022Z,4.15
2022-10-06T03:25:09.827Z,4.33
2022-10-06T03:27:36.032Z,4.05
2022-10-06T03:30:03.448Z,5.63
2022-10-06T03:32:29.652Z,4.38
2022-10-06T03:34:55.863Z,3.85
2022-10-06T03:37:22.772Z,3.60
2022-10-06T03:39:48.992Z,4.00
2022-10-06T03:42:15.223Z,4.22
2022-10-06T03:44:41.478Z,4.13
2022-10-06T03:47:07.960Z,4.30
2022-10-06T03:49:34.268Z,3.78
2022-10-06T03:52:00.509Z,4.32
2022-10-06T03:54:26.736Z,4.40
2022-10-06T03:56:53.249Z,4.57
2022-10-06T03:59:19.648Z,4.53
2022-10-06T04:01:47.070Z,3.83
2022-10-06T04:04:13.469Z,3.90
2022-10-06T04:06:41.426Z,4.40
2022-10-06T04:09:13.969Z,4.95
2022-10-06T04:11:41.724Z,4.50
2022-10-06T04:14:09.697Z,4.15
2022-10-06T04:16:36.922Z,29.50
2022-10-06T04:19:04.775Z,5.65
2022-10-06T04:21:31.894Z,8.32
2022-10-06T04:23:59.340Z,10.88
2022-10-06T04:26:26.984Z,15.57
2022-10-06T04:28:54.008Z,9.68
2022-10-06T04:33:47.127Z,4.93
2022-10-06T04:36:15.773Z,4.63
2022-10-06T04:38:42.233Z,5.22
2022-10-06T04:41:13.131Z,5.55
2022-10-06T04:43:39.452Z,22.52
2022-10-06T04:46:18.410Z,4.75
2022-10-06T04:48:52.886Z,5.40
2022-10-06T04:53:45.464Z,5.28
2022-10-06T04:56:13.297Z,5.60
2022-10-06T04:58:40.649Z,4.93
2022-10-06T05:01:16.564Z,5.50
2022-10-06T05:03:43.522Z,5.72
2022-10-06T05:06:11.470Z,6.75
2022-10-06T05:08:37.730Z,7.13
2022-10-06T05:11:05.874Z,11.40
2022-10-06T05:13:32.182Z,8.77
2022-10-06T05:15:59.234Z,9.82
2022-10-06T05:18:26.524Z,8.18
2022-10-06T05:20:56.808Z,9.68
2022-10-06T05:23:23.566Z,6.40
2022-10-06T05:25:50.614Z,10.50
2022-10-06T05:30:43.069Z,11.90
2022-10-06T05:33:11.077Z,8.57
2022-10-06T05:35:37.308Z,7.10
2022-10-06T05:38:03.518Z,11.35
2022-10-06T05:40:29.733Z,5.93
2022-10-06T05:42:55.975Z,7.40
2022-10-06T05:45:22.193Z,5.35
2022-10-06T05:47:48.396Z,4.97
2022-10-06T05:50:15.054Z,3.80
2022-10-06T05:52:42.088Z,4.40
2022-10-06T05:57:34.964Z,5.95
2022-10-06T06:00:01.685Z,5.45
2022-10-06T06:02:28.021Z,3.35
2022-10-06T06:04:54.344Z,3.25
2022-10-06T06:07:20.614Z,4.18
2022-10-06T06:09:46.837Z,3.75
2022-10-06T06:12:13.393Z,3.80
2022-10-06T06:14:58.330Z,3.90
2022-10-06T06:17:24.553Z,4.18
2022-10-06T06:19:50.806Z,3.05
2022-10-06T06:22:17.039Z,4.10
2022-10-06T06:24:43.280Z,2.85
2022-10-06T06:27:09.520Z,2.35
2022-10-06T06:29:35.794Z,2.45
2022-10-06T06:32:02.077Z,2.28
2022-10-06T06:34:29.108Z,2.38
2022-10-06T06:37:02.331Z,3.00
2022-10-06T06:39:29.934Z,3.13
2022-10-06T06:41:56.220Z,5.63
2022-10-06T06:44:23.798Z,3.10
2022-10-06T06:46:50.126Z,3.28
2022-10-06T06:49:16.836Z,2.75
2022-10-06T06:51:44.331Z,4.57
2022-10-06T06:54:11.590Z,3.75
2022-10-06T06:56:38.826Z,3.00
2022-10-06T06:59:10.738Z,3.58
2022-10-06T07:01:44.455Z,3.90
2022-10-06T07:04:11.963Z,2.95
2022-10-06T07:06:39.994Z,2.75
2022-10-06T07:09:06.728Z,2.65
2022-10-06T07:11:34.120Z,2.40
2022-10-06T07:14:01.588Z,2.28
2022-10-06T07:16:47.334Z,2.08
2022-10-06T07:19:32.708Z,1.88
2022-10-06T07:22:19.004Z,1.73
2022-10-06T07:25:04.289Z,1.60
2022-10-06T07:27:31.602Z,1.83
2022-10-06T07:29:57.834Z,1.80
2022-10-06T07:32:24.996Z,1.83
2022-10-06T07:34:51.525Z,2.22
2022-10-06T07:37:18.551Z,1.83
2022-10-06T07:39:44.898Z,1.50
2022-10-06T07:42:18.089Z,1.85
2022-10-06T07:45:05.337Z,1.33
2022-10-06T07:47:32.001Z,1.50
2022-10-06T07:50:01.100Z,1.52
2022-10-06T07:52:30.318Z,1.67
2022-10-06T07:54:58.349Z,1.80
2022-10-06T07:57:34.602Z,1.45
2022-10-06T08:00:03.280Z,1.83
2022-10-06T08:02:33.036Z,1.58
2022-10-06T08:05:01.889Z,2.05
2022-10-06T08:07:28.288Z,1.45
2022-10-06T08:09:54.588Z,1.60
2022-10-06T08:12:32.843Z,1.48
2022-10-06T08:15:05.996Z,2.03
2022-10-06T08:17:34.518Z,1.65
2022-10-06T08:22:29.852Z,2.05
2022-10-06T08:25:08.339Z,2.20
2022-10-06T08:27:35.812Z,2.30
2022-10-06T08:30:02.444Z,1.60
2022-10-06T08:32:28.852Z,1.73
2022-10-06T08:34:55.393Z,2.75
2022-10-06T08:39:54.027Z,1.55
2022-10-06T08:42:25.241Z,1.70
2022-10-06T08:44:58.222Z,1.77
2022-10-06T08:47:27.242Z,1.60
2022-10-06T08:49:55.269Z,2.15
2022-10-06T08:52:47.975Z,1.95
2022-10-06T08:55:33.026Z,1.70
2022-10-06T08:58:14.541Z,1.90
2022-10-06T09:00:40.767Z,1.70
2022-10-06T09:03:14.542Z,1.60
2022-10-06T09:05:40.850Z,1.52
2022-10-06T09:08:34.013Z,1.80
2022-10-06T09:11:14.949Z,1.90
2022-10-06T09:13:43.780Z,1.90
2022-10-06T09:16:12.449Z,2.30
2022-10-06T09:19:07.319Z,1.75
2022-10-06T09:21:49.706Z,1.50
2022-10-06T09:24:17.252Z,1.58
2022-10-06T09:26:45.161Z,2.40
2022-10-06T09:29:11.925Z,1.98
2022-10-06T09:31:43.144Z,1.90
2022-10-06T09:34:21.631Z,2.47
2022-10-06T09:37:01.676Z,2.05
2022-10-06T09:39:38.855Z,1.95
2022-10-06T09:42:06.712Z,1.45
2022-10-06T09:44:51.402Z,1.88
2022-10-06T09:47:38.974Z,1.45
2022-10-06T09:50:17.545Z,1.58
2022-10-06T09:53:01.470Z,1.70
2022-10-06T09:55:47.975Z,1.77
2022-10-06T09:58:18.239Z,2.47
2022-10-06T10:00:51.798Z,1.70
2022-10-06T10:03:18.235Z,2.20
2022-10-06T10:05:48.933Z,2.22
2022-10-06T10:08:25.480Z,1.77
2022-10-06T10:11:32.382Z,1.50
2022-10-06T10:13:59.198Z,2.28
2022-10-06T10:16:34.523Z,2.20
2022-10-06T10:19:02.286Z,2.00
2022-10-06T10:21:30.559Z,1.63
2022-10-06T10:23:57.533Z,2.03
2022-10-06T10:29:06.819Z,2.35
2022-10-06T10:31:48.037Z,1.60
2022-10-06T10:34:24.293Z,1.90
2022-10-06T10:37:04.187Z,1.53
2022-10-06T10:39:33.919Z,1.80
2022-10-06T10:42:02.849Z,1.63
2022-10-06T10:44:37.243Z,2.13
2022-10-06T10:47:07.737Z,1.80
2022-10-06T10:49:34.855Z,1.30
2022-10-06T10:52:20.230Z,2.08
2022-10-06T10:54:51.823Z,2.33
2022-10-06T10:57:21.526Z,1.50
2022-10-06T11:00:10.917Z,2.42
2022-10-06T11:02:38.359Z,1.77
2022-10-06T11:05:29.001Z,2.08
2022-10-06T11:07:55.392Z,1.95
2022-10-06T11:10:21.666Z,1.88
2022-10-06T11:13:02.077Z,1.95
2022-10-06T11:15:53.927Z,1.85
2022-10-06T11:18:26.833Z,1.67
2022-10-06T11:20:56.422Z,1.80
2022-10-06T11:23:31.681Z,1.95
2022-10-06T11:26:03.988Z,1.95
2022-10-06T11:28:41.936Z,1.80
2022-10-06T11:31:23.729Z,1.35
2022-10-06T11:33:52.728Z,1.60
2022-10-06T11:36:25.830Z,1.92
2022-10-06T11:39:10.809Z,2.60
2022-10-06T11:41:45.077Z,1.80
2022-10-06T11:44:16.799Z,1.70
2022-10-06T11:46:45.591Z,2.00
2022-10-06T11:49:30.420Z,1.63
2022-10-06T11:52:00.143Z,1.70
2022-10-06T11:54:46.466Z,1.52
2022-10-06T11:57:30.518Z,1.55
2022-10-06T12:00:15.893Z,1.48
2022-10-06T12:02:42.853Z,1.50
2022-10-06T12:05:28.469Z,1.60
2022-10-06T12:07:55.321Z,1.88
2022-10-06T12:10:27.750Z,1.65
2022-10-06T12:13:06.847Z,1.60
2022-10-06T12:18:40.788Z,1.80
2022-10-06T12:21:13.062Z,1.60
2022-10-06T12:23:49.017Z,2.00
2022-10-06T12:26:33.767Z,1.58
2022-10-06T12:29:18.365Z,2.05
2022-10-06T12:31:44.585Z,2.03
2022-10-06T12:34:29.695Z,2.08
2022-10-06T12:37:14.946Z,2.08
2022-10-06T12:39:41.405Z,1.88
2022-10-06T12:42:17.131Z,1.70
2022-10-06T12:44:45.527Z,1.60
2022-10-06T12:47:14.814Z,2.28
2022-10-06T12:49:49.033Z,1.70
2022-10-06T12:52:15.246Z,1.85
2022-10-06T12:54:57.335Z,1.77
2022-10-06T12:57:28.469Z,2.05
2022-10-06T12:59:54.743Z,1.65
2022-10-06T13:02:22.143Z,1.58
2022-10-06T13:04:49.262Z,1.77
2022-10-06T13:07:23.183Z,1.70
2022-10-06T13:09:53.678Z,1.85
2022-10-06T13:12:19.989Z,2.00
2022-10-06T13:19:43.757Z,2.05
2022-10-06T13:22:13.504Z,1.42
2022-10-06T13:24:40.014Z,1.67
2022-10-06T13:27:06.296Z,1.65
2022-10-06T13:29:32.656Z,1.90
2022-10-06T13:31:58.989Z,1.70
2022-10-06T13:34:34.981Z,1.67
2022-10-06T13:37:06.581Z,2.35
2022-10-06T13:39:32.879Z,1.92
2022-10-06T13:44:30.685Z,2.00
2022-10-06T13:47:05.375Z,1.48
2022-10-06T13:49:50.239Z,1.65
2022-10-06T13:52:25.296Z,1.50
2022-10-06T13:54:56.454Z,1.70
2022-10-06T13:57:32.821Z,1.33
2022-10-06T14:00:25.468Z,1.83
2022-10-06T14:03:10.568Z,1.95
2022-10-06T14:05:38.495Z,2.10
2022-10-06T14:08:10.698Z,1.70
2022-10-06T14:10:39.935Z,1.88
2022-10-06T14:13:08.425Z,1.77
2022-10-06T14:15:44.943Z,1.70
2022-10-06T14:18:19.182Z,1.63
2022-10-06T14:20:46.333Z,1.90
2022-10-06T14:23:31.192Z,2.17
2022-10-06T14:25:57.814Z,1.80
2022-10-06T14:28:29.501Z,1.90
2022-10-06T14:30:57.429Z,2.13
2022-10-06T14:33:26.755Z,1.52
2022-10-06T14:35:53.310Z,1.70
2022-10-06T14:38:19.909Z,2.00
2022-10-06T14:40:46.134Z,1.45
2022-10-06T14:43:12.414Z,1.70
2022-10-06T14:45:42.671Z,1.70
2022-10-06T14:48:09.586Z,1.77
2022-10-06T14:50:36.051Z,1.98
2022-10-06T14:53:02.677Z,1.90
2022-10-06T14:55:30.674Z,2.03
2022-10-06T14:57:57.461Z,2.03
2022-10-06T15:00:24.115Z,2.05
2022-10-06T15:02:50.442Z,1.90
2022-10-06T15:05:16.849Z,1.90
2022-10-06T15:10:28.176Z,1.52
2022-10-06T15:12:55.493Z,1.60
2022-10-06T15:15:21.806Z,1.80
2022-10-06T15:17:48.051Z,1.83
2022-10-06T15:22:41.278Z,1.70
2022-10-06T15:25:07.732Z,1.98
2022-10-06T15:27:52.670Z,1.75
2022-10-06T15:30:18.892Z,1.90
2022-10-06T15:32:45.160Z,1.40
2022-10-06T15:35:11.411Z,2.00
2022-10-06T15:37:39.218Z,1.67
2022-10-06T15:40:05.625Z,1.92
2022-10-06T15:42:31.845Z,1.75
2022-10-06T15:44:58.130Z,1.70
2022-10-06T15:47:24.786Z,1.33
2022-10-06T15:52:18.515Z,2.03
2022-10-06T15:54:48.592Z,1.80
2022-10-06T15:57:20.405Z,1.67
2022-10-06T15:59:47.404Z,2.42
2022-10-06T16:02:15.833Z,1.65
2022-10-06T16:04:42.865Z,2.03
2022-10-06T16:09:42.995Z,2.15
2022-10-06T16:12:11.250Z,2.08
2022-10-06T16:14:37.526Z,1.73
2022-10-06T16:17:04.677Z,1.92
2022-10-06T16:19:31.536Z,1.83
2022-10-06T16:24:25.926Z,1.85
2022-10-06T16:26:52.572Z,1.80
2022-10-06T16:29:19.814Z,2.60
2022-10-06T16:31:46.320Z,2.08
2022-10-06T16:34:13.042Z,1.90
2022-10-06T16:36:39.646Z,1.80
2022-10-06T16:39:06.902Z,2.00
2022-10-06T16:41:33.596Z,2.50
2022-10-06T16:43:59.843Z,1.70
2022-10-06T16:46:27.264Z,2.33
2022-10-06T16:48:55.089Z,3.63
2022-10-06T16:51:21.354Z,2.58
2022-10-06T16:53:48.856Z,2.55
2022-10-06T16:56:17.239Z,2.25
2022-10-06T16:58:44.611Z,2.13
2022-10-06T17:01:11.780Z,2.58
2022-10-06T17:03:38.089Z,2.05
2022-10-06T17:06:05.672Z,1.90
2022-10-06T17:08:32.103Z,1.90
2022-10-06T17:11:06.845Z,2.05
2022-10-06T17:13:34.111Z,1.98
2022-10-06T17:16:02.014Z,1.85
2022-10-06T17:18:28.532Z,2.42
2022-10-06T17:20:57.278Z,2.33
2022-10-06T17:23:23.785Z,2.53
2022-10-06T17:26:19.510Z,2.25
2022-10-06T17:28:46.542Z,2.53
2022-10-06T17:33:39.886Z,2.28
2022-10-06T17:36:07.053Z,2.80
2022-10-06T17:38:34.421Z,6.00
2022-10-06T17:41:06.599Z,5.63
2022-10-06T17:43:36.891Z,3.22
2022-10-06T17:46:07.398Z,3.65
2022-10-06T17:48:33.730Z,5.35
2022-10-06T17:51:00.295Z,5.88
2022-10-06T17:53:26.726Z,8.15
2022-10-06T17:55:55.037Z,6.30
2022-10-06T17:58:22.025Z,6.18
2022-10-06T18:03:14.473Z,5.72
2022-10-06T18:05:40.768Z,4.40
2022-10-06T18:08:09.961Z,4.97
2022-10-06T18:10:59.035Z,5.38
2022-10-06T18:13:25.962Z,4.93
2022-10-06T18:15:52.174Z,4.57
2022-10-06T18:18:25.104Z,4.22
2022-10-06T18:20:51.541Z,5.53
2022-10-06T18:23:17.777Z,5.53
2022-10-06T18:25:44.350Z,6.38
2022-10-06T18:28:11.889Z,5.07
2022-10-06T18:30:38.177Z,29.35
2022-10-06T18:36:10.080Z,28.08
2022-10-06T18:36:14.737Z,11.98
2022-10-06T18:38:43.396Z,6.15
2022-10-06T18:41:17.065Z,8.90
2022-10-06T18:43:43.778Z,12.60
2022-10-06T18:46:30.033Z,3.80
2022-10-06T18:48:58.625Z,5.40
2022-10-06T18:51:29.988Z,20.17
2022-10-06T18:53:56.966Z,17.73
2022-10-06T18:58:49.878Z,25.02
2022-10-06T19:01:16.643Z,10.27
2022-10-06T19:03:43.005Z,4.25
2022-10-06T19:06:09.237Z,3.40
2022-10-06T19:08:35.825Z,68.35
2022-10-06T19:11:24.524Z,80.10
2022-10-06T19:13:53.304Z,22.67
2022-10-06T19:16:19.881Z,17.20
2022-10-06T19:18:46.433Z,8.25
2022-10-06T19:21:13.506Z,5.05
2022-10-06T19:23:40.155Z,5.13
2022-10-06T19:26:07.552Z,30.10
2022-10-06T19:28:34.278Z,53.15
2022-10-06T19:31:02.282Z,64.07
2022-10-06T19:33:29.721Z,52.65
2022-10-06T19:35:56.754Z,25.42
2022-10-06T19:40:49.440Z,29.88
2022-10-06T19:43:15.879Z,46.15
2022-10-06T19:45:42.163Z,38.70
2022-10-06T19:48:11.213Z,31.73
2022-10-06T19:50:38.861Z,14.13
2022-10-06T19:53:06.010Z,5.03
2022-10-06T19:55:32.681Z,4.47
2022-10-06T19:57:59.997Z,9.35
2022-10-06T20:00:27.017Z,19.70
2022-10-06T20:05:19.772Z,4.97
2022-10-06T20:07:46.971Z,3.85
2022-10-06T20:10:13.570Z,4.20
2022-10-06T20:12:41.375Z,4.38
2022-10-06T20:15:08.361Z,9.27
2022-10-06T20:17:35.250Z,19.98
2022-10-06T20:20:03.135Z,11.70
2022-10-06T20:22:29.391Z,7.90
2022-10-06T20:24:55.630Z,4.57
2022-10-06T20:27:21.870Z,4.05
2022-10-06T20:29:48.605Z,4.75
2022-10-06T20:32:14.855Z,5.20
2022-10-06T20:34:41.149Z,23.27
2022-10-06T20:37:07.404Z,4.47
2022-10-06T20:39:52.469Z,3.70
2022-10-06T20:42:19.723Z,4.03
2022-10-06T20:44:46.103Z,4.82
2022-10-06T20:47:12.954Z,4.53
2022-10-06T20:49:39.243Z,4.57
2022-10-06T20:52:05.671Z,4.57
2022-10-06T20:54:34.844Z,4.85
2022-10-06T20:57:02.770Z,5.35
2022-10-06T20:59:29.837Z,5.50
2022-10-06T21:04:22.606Z,6.07
2022-10-06T21:06:49.293Z,4.75
2022-10-06T21:09:16.968Z,4.40
2022-10-06T21:11:43.582Z,5.65
2022-10-06T21:14:11.926Z,4.95
2022-10-06T21:16:39.569Z,6.13
2022-10-06T21:19:09.692Z,4.40
2022-10-06T21:21:37.477Z,4.72
2022-10-06T21:24:04.496Z,5.53
2022-10-06T21:28:57.433Z,5.45
2022-10-06T21:31:25.308Z,4.75
2022-10-06T21:33:52.413Z,4.32
2022-10-06T21:38:49.291Z,5.28
2022-10-06T21:41:54.889Z,3.17
2022-10-06T21:44:21.253Z,3.70
2022-10-06T21:46:49.068Z,5.35
2022-10-06T21:49:16.662Z,4.30
2022-10-06T21:51:45.662Z,4.57
2022-10-06T21:54:12.309Z,4.40
2022-10-06T21:56:39.312Z,4.85
2022-10-06T22:01:36.014Z,3.88
2022-10-06T22:04:02.463Z,3.70
2022-10-06T22:06:29.761Z,4.43
2022-10-06T22:08:56.929Z,3.85
2022-10-06T22:11:24.833Z,4.63
2022-10-06T22:13:53.820Z,4.10
2022-10-06T22:16:21.747Z,4.43
2022-10-06T22:18:48.484Z,4.13
2022-10-06T22:21:19.723Z,4.55
2022-10-06T22:23:47.548Z,4.28
2022-10-06T22:26:15.445Z,3.35
2022-10-06T22:28:46.425Z,3.85
2022-10-06T22:31:13.120Z,3.65
2022-10-06T22:33:40.024Z,3.67
2022-10-06T22:36:07.213Z,4.20
2022-10-06T22:38:34.153Z,5.88
2022-10-06T22:41:04.509Z,5.20
2022-10-06T22:43:30.936Z,4.38
2022-10-06T22:45:57.401Z,5.20
2022-10-06T22:48:24.140Z,5.35
2022-10-06T22:50:50.905Z,5.35
2022-10-06T22:53:17.896Z,4.60
2022-10-06T22:58:11.352Z,7.05
2022-10-06T23:03:04.532Z,5.22
2022-10-06T23:05:31.078Z,5.00
2022-10-06T23:07:57.608Z,5.40
2022-10-06T23:10:25.125Z,5.20
2022-10-06T23:12:55.117Z,4.57
2022-10-06T23:15:21.532Z,4.38
2022-10-06T23:17:48.000Z,4.20
2022-10-06T23:20:14.622Z,4.03
2022-10-06T23:22:41.010Z,3.92
2022-10-06T23:25:08.050Z,4.30
2022-10-06T23:30:00.899Z,4.03
2022-10-06T23:32:27.267Z,3.92
2022-10-06T23:34:53.650Z,6.07
2022-10-06T23:37:20.123Z,11.63
2022-10-06T23:39:46.662Z,12.15
2022-10-06T23:42:13.208Z,27.50
2022-10-06T23:44:40.405Z,29.27
2022-10-06T23:47:06.819Z,38.50
2022-10-06T23:49:33.778Z,22.30
2022-10-06T23:52:00.852Z,14.80
2022-10-06T23:54:27.297Z,11.05
2022-10-06T23:56:55.615Z,10.05
2022-10-06T23:59:22.586Z,8.00
